createdAt,value
2022-08-17T00:00:34.472Z,43.39
2022-08-17T00:03:26.166Z,43.38
2022-08-17T00:06:03.178Z,44.00
2022-08-17T00:08:38.219Z,44.09
2022-08-17T00:11:10.210Z,44.20
2022-08-17T00:13:47.164Z,44.50
2022-08-17T00:16:51.953Z,44.65
2022-08-17T00:19:15.125Z,44.30
2022-08-17T00:22:33.121Z,44.37
2022-08-17T00:24:34.237Z,44.50
2022-08-17T00:27:01.422Z,44.88
2022-08-17T00:29:28.287Z,44.28
2022-08-17T00:31:55.357Z,44.86
2022-08-17T00:34:22.243Z,44.90
2022-08-17T00:36:49.069Z,44.66
2022-08-17T00:39:16.092Z,44.63
2022-08-17T00:41:43.297Z,44.78
2022-08-17T00:44:12.193Z,45.54
2022-08-17T00:46:42.436Z,45.34
2022-08-17T00:49:12.805Z,45.35
2022-08-17T00:52:11.693Z,45.64
2022-08-17T00:54:43.416Z,45.71
2022-08-17T00:57:30.803Z,45.88
2022-08-17T01:00:07.170Z,46.08
2022-08-17T01:02:43.192Z,46.12
2022-08-17T01:05:23.975Z,46.72
2022-08-17T01:07:53.684Z,46.49
2022-08-17T01:10:59.259Z,46.45
2022-08-17T01:13:28.680Z,46.24
2022-08-17T01:16:04.580Z,46.60
2022-08-17T01:18:32.881Z,46.77
2022-08-17T01:21:24.601Z,46.68
2022-08-17T01:23:51.711Z,46.93
2022-08-17T01:26:20.190Z,46.59
2022-08-17T01:28:54.542Z,47.12
2022-08-17T01:31:28.699Z,47.09
2022-08-17T01:34:00.269Z,47.32
2022-08-17T01:36:29.024Z,46.85
2022-08-17T01:38:56.280Z,47.27
2022-08-17T01:41:24.530Z,47.51
2022-08-17T01:43:59.042Z,47.49
2022-08-17T01:46:31.228Z,47.21
2022-08-17T01:48:58.653Z,47.63
2022-08-17T01:51:32.927Z,47.64
2022-08-17T01:54:15.183Z,47.47
2022-08-17T01:56:47.774Z,47.79
2022-08-17T01:59:18.278Z,47.74
2022-08-17T02:01:47.202Z,48.30
2022-08-17T02:04:15.659Z,47.87
2022-08-17T02:06:53.698Z,47.82
2022-08-17T02:09:29.935Z,48.05
2022-08-17T02:12:37.391Z,48.20
2022-08-17T02:14:49.143Z,48.25
2022-08-17T02:17:16.223Z,48.46
2022-08-17T02:19:43.287Z,48.46
2022-08-17T02:22:10.452Z,48.50
2022-08-17T02:24:59.869Z,48.50
2022-08-17T02:27:26.553Z,48.18
2022-08-17T02:29:53.696Z,48.43
2022-08-17T02:32:27.821Z,48.42
2022-08-17T02:34:59.838Z,48.40
2022-08-17T02:37:29.897Z,48.95
2022-08-17T02:39:58.784Z,48.85
2022-08-17T02:42:39.852Z,48.72
2022-08-17T02:45:18.767Z,48.82
2022-08-17T02:47:47.088Z,48.79
2022-08-17T02:50:18.435Z,49.17
2022-08-17T02:52:55.258Z,49.52
2022-08-17T02:55:37.410Z,49.40
2022-08-17T02:58:05.400Z,49.59
2022-08-17T03:00:42.158Z,49.60
2022-08-17T03:03:13.751Z,49.63
2022-08-17T03:05:40.805Z,49.79
2022-08-17T03:08:13.118Z,50.15
2022-08-17T03:10:41.614Z,50.20
2022-08-17T03:13:09.075Z,49.96
2022-08-17T03:15:36.092Z,50.61
2022-08-17T03:18:07.452Z,50.31
2022-08-17T03:20:46.893Z,50.16
2022-08-17T03:23:13.904Z,50.26
2022-08-17T03:25:44.087Z,50.41
2022-08-17T03:28:12.155Z,50.78
2022-08-17T03:30:40.596Z,50.71
2022-08-17T03:33:12.290Z,50.69
2022-08-17T03:35:41.063Z,50.97
2022-08-17T03:38:11.329Z,51.02
2022-08-17T03:40:56.909Z,51.17
2022-08-17T03:43:30.910Z,50.87
2022-08-17T03:46:34.549Z,51.23
2022-08-17T03:49:24.720Z,51.03
2022-08-17T03:52:11.703Z,51.33
2022-08-17T03:54:57.886Z,51.45
2022-08-17T03:57:26.103Z,51.41
2022-08-17T03:59:55.257Z,51.57
2022-08-17T04:02:30.190Z,51.59
2022-08-17T04:04:58.568Z,51.50
2022-08-17T04:07:29.743Z,51.32
2022-08-17T04:09:58.171Z,51.61
2022-08-17T04:12:30.819Z,51.66
2022-08-17T04:14:58.650Z,51.71
2022-08-17T04:17:28.504Z,51.96
2022-08-17T04:19:56.828Z,52.09
2022-08-17T04:22:33.343Z,52.09
2022-08-17T04:25:08.653Z,51.87
2022-08-17T04:27:36.190Z,52.09
2022-08-17T04:30:07.287Z,51.31
2022-08-17T04:33:06.270Z,51.66
2022-08-17T04:35:48.295Z,51.57
2022-08-17T04:38:21.292Z,51.68
2022-08-17T04:41:07.891Z,51.88
2022-08-17T04:43:37.831Z,51.93
2022-08-17T04:46:10.710Z,52.14
2022-08-17T04:48:42.869Z,51.60
2022-08-17T04:51:30.436Z,51.34
2022-08-17T04:54:02.726Z,51.73
2022-08-17T04:56:31.632Z,51.65
2022-08-17T04:59:05.634Z,51.37
2022-08-17T05:01:35.869Z,51.93
2022-08-17T05:04:33.565Z,51.56
2022-08-17T05:06:59.091Z,51.55
2022-08-17T05:09:27.176Z,51.27
2022-08-17T05:11:55.324Z,51.57
2022-08-17T05:14:32.463Z,51.16
2022-08-17T05:17:01.338Z,51.59
2022-08-17T05:19:28.968Z,51.06
2022-08-17T05:21:55.755Z,51.21
2022-08-17T05:24:42.673Z,50.93
2022-08-17T05:27:09.658Z,50.79
2022-08-17T05:29:41.905Z,50.44
2022-08-17T05:32:39.571Z,50.84
2022-08-17T05:35:00.362Z,51.17
2022-08-17T05:37:27.584Z,50.77
2022-08-17T05:39:54.726Z,50.45
2022-08-17T05:42:22.151Z,50.25
2022-08-17T05:44:49.033Z,50.23
2022-08-17T05:47:16.356Z,50.47
2022-08-17T05:49:43.461Z,50.10
2022-08-17T05:52:26.420Z,50.14
2022-08-17T05:55:18.051Z,50.07
2022-08-17T05:57:57.735Z,50.29
2022-08-17T06:00:37.055Z,50.32
2022-08-17T06:03:43.203Z,50.09
2022-08-17T06:06:48.092Z,50.20
2022-08-17T06:09:45.718Z,50.21
2022-08-17T06:13:03.061Z,50.02
2022-08-17T06:16:02.027Z,50.37
2022-08-17T06:18:48.660Z,50.01
2022-08-17T06:21:19.911Z,50.11
2022-08-17T06:24:08.017Z,49.88
2022-08-17T06:26:43.448Z,49.83
2022-08-17T06:29:24.871Z,49.78
2022-08-17T06:31:52.055Z,48.98
2022-08-17T06:34:21.743Z,49.29
2022-08-17T06:37:27.430Z,49.73
2022-08-17T06:40:12.767Z,49.29
2022-08-17T06:43:05.860Z,48.88
2022-08-17T06:45:51.725Z,48.83
2022-08-17T06:49:11.695Z,48.66
2022-08-17T06:51:51.525Z,48.35
2022-08-17T06:54:41.431Z,48.48
2022-08-17T06:57:24.856Z,48.14
2022-08-17T07:00:04.275Z,48.05
2022-08-17T07:03:01.209Z,47.98
2022-08-17T07:05:47.681Z,48.09
2022-08-17T07:08:38.353Z,47.75
2022-08-17T07:11:20.982Z,47.69
2022-08-17T07:14:01.395Z,47.87
2022-08-17T07:16:56.255Z,47.46
2022-08-17T07:19:31.855Z,47.04
2022-08-17T07:22:10.710Z,47.03
2022-08-17T07:25:00.357Z,47.04
2022-08-17T07:27:46.311Z,47.05
2022-08-17T07:30:28.399Z,46.67
2022-08-17T07:33:13.722Z,46.89
2022-08-17T07:35:43.886Z,46.31
2022-08-17T07:38:31.435Z,46.31
2022-08-17T07:41:02.208Z,46.58
2022-08-17T07:43:40.151Z,46.25
2022-08-17T07:47:05.351Z,46.35
2022-08-17T07:49:32.251Z,45.81
2022-08-17T07:52:47.885Z,45.70
2022-08-17T07:54:58.668Z,45.42
2022-08-17T07:57:36.146Z,45.32
2022-08-17T08:00:16.315Z,45.03
2022-08-17T08:02:59.639Z,44.57
2022-08-17T08:05:49.879Z,45.04
2022-08-17T08:08:42.691Z,44.42
2022-08-17T08:11:15.461Z,43.73
2022-08-17T08:13:45.793Z,43.69
2022-08-17T08:16:30.907Z,42.77
2022-08-17T08:19:01.713Z,42.79
2022-08-17T08:21:52.227Z,43.13
2022-08-17T08:24:45.759Z,43.24
2022-08-17T08:27:35.915Z,42.92
2022-08-17T08:30:19.675Z,42.05
2022-08-17T08:33:44.025Z,41.60
2022-08-17T08:36:57.139Z,42.19
2022-08-17T08:40:01.876Z,41.76
2022-08-17T08:43:09.332Z,41.59
2022-08-17T08:46:25.105Z,41.04
2022-08-17T08:53:16.170Z,40.61
2022-08-17T08:55:59.132Z,40.41
2022-08-17T08:58:41.251Z,39.52
2022-08-17T09:01:25.571Z,39.80
2022-08-17T09:04:24.568Z,39.85
2022-08-17T09:07:29.575Z,38.92
2022-08-17T09:10:25.514Z,38.67
2022-08-17T09:13:16.916Z,38.82
2022-08-17T09:15:57.377Z,38.82
2022-08-17T09:19:02.955Z,38.36
2022-08-17T09:21:45.778Z,38.06
2022-08-17T09:24:57.157Z,37.95
2022-08-17T09:27:35.371Z,37.27
2022-08-17T09:30:09.659Z,37.46
2022-08-17T09:32:44.276Z,38.00
2022-08-17T09:35:32.902Z,37.89
2022-08-17T09:38:34.473Z,38.01
2022-08-17T09:41:29.117Z,37.29
2022-08-17T09:44:25.138Z,37.87
2022-08-17T09:47:05.675Z,37.84
2022-08-17T09:49:47.072Z,37.33
2022-08-17T09:52:28.358Z,37.34
2022-08-17T09:54:59.385Z,36.90
2022-08-17T09:57:50.415Z,37.13
2022-08-17T10:00:34.685Z,37.29
2022-08-17T10:03:22.815Z,36.32
2022-08-17T10:06:21.721Z,36.55
2022-08-17T10:09:18.473Z,36.36
2022-08-17T10:12:30.277Z,36.39
2022-08-17T10:15:07.963Z,36.23
2022-08-17T10:18:01.356Z,36.50
2022-08-17T10:20:42.949Z,36.32
2022-08-17T10:23:48.916Z,35.41
2022-08-17T10:26:28.158Z,35.70
2022-08-17T10:29:24.472Z,35.33
2022-08-17T10:32:09.194Z,35.41
2022-08-17T10:35:04.196Z,35.58
2022-08-17T10:37:37.624Z,35.37
2022-08-17T10:40:32.492Z,36.04
2022-08-17T10:43:20.654Z,34.86
2022-08-17T10:46:09.234Z,34.81
2022-08-17T10:49:13.658Z,34.63
2022-08-17T10:51:42.071Z,35.03
2022-08-17T10:54:24.403Z,35.06
2022-08-17T10:56:55.274Z,34.72
2022-08-17T10:59:37.127Z,34.76
2022-08-17T11:02:14.806Z,34.16
2022-08-17T11:04:59.903Z,33.99
2022-08-17T11:07:53.979Z,33.95
2022-08-17T11:10:49.910Z,34.70
2022-08-17T11:13:49.596Z,34.25
2022-08-17T11:16:48.051Z,34.14
2022-08-17T11:20:12.656Z,34.02
2022-08-17T11:23:03.863Z,33.61
2022-08-17T11:25:46.963Z,34.12
2022-08-17T11:28:23.748Z,35.09
2022-08-17T11:31:05.566Z,35.26
2022-08-17T11:33:36.848Z,34.23
2022-08-17T11:36:46.463Z,33.44
2022-08-17T11:39:13.364Z,33.70
2022-08-17T11:42:00.108Z,33.52
2022-08-17T11:44:58.780Z,33.54
2022-08-17T11:48:27.824Z,33.01
2022-08-17T11:51:36.447Z,32.74
2022-08-17T11:57:02.254Z,33.68
2022-08-17T11:59:36.486Z,32.92
2022-08-17T12:02:35.048Z,33.73
2022-08-17T12:05:16.717Z,32.90
2022-08-17T12:07:56.259Z,33.57
2022-08-17T12:10:32.012Z,33.31
2022-08-17T12:13:10.878Z,33.11
2022-08-17T12:15:49.027Z,33.23
2022-08-17T12:18:49.790Z,33.42
2022-08-17T12:21:23.653Z,33.11
2022-08-17T12:24:37.578Z,33.04
2022-08-17T12:27:09.438Z,32.99
2022-08-17T12:29:42.731Z,32.77
2022-08-17T12:32:18.286Z,32.56
2022-08-17T12:34:49.375Z,32.43
2022-08-17T12:37:26.215Z,32.51
2022-08-17T12:40:17.513Z,31.78
2022-08-17T12:43:00.906Z,32.03
2022-08-17T12:45:36.544Z,31.90
2022-08-17T12:48:21.845Z,31.95
2022-08-17T12:50:50.901Z,32.16
2022-08-17T12:53:30.093Z,31.98
2022-08-17T12:56:00.305Z,31.84
2022-08-17T12:58:36.809Z,31.60
2022-08-17T13:01:15.309Z,31.31
2022-08-17T13:03:49.397Z,31.39
2022-08-17T13:06:36.609Z,31.14
2022-08-17T13:09:40.284Z,31.88
2022-08-17T13:12:08.149Z,31.15
2022-08-17T13:14:35.442Z,31.14
2022-08-17T13:17:09.643Z,30.84
2022-08-17T13:19:50.878Z,30.75
2022-08-17T13:22:25.031Z,30.89
2022-08-17T13:24:58.878Z,30.92
2022-08-17T13:27:29.022Z,30.95
2022-08-17T13:30:02.296Z,31.01
2022-08-17T13:32:48.672Z,30.94
2022-08-17T13:35:39.175Z,30.91
2022-08-17T13:38:49.539Z,30.79
2022-08-17T13:41:37.366Z,31.51
2022-08-17T13:44:39.436Z,31.52
2022-08-17T13:47:18.981Z,31.26
2022-08-17T13:49:49.040Z,31.80
2022-08-17T13:52:39.105Z,31.67
2022-08-17T13:55:18.850Z,31.36
2022-08-17T13:57:50.489Z,30.98
2022-08-17T14:00:36.720Z,31.02
2022-08-17T14:03:05.805Z,30.90
2022-08-17T14:05:33.848Z,30.89
2022-08-17T14:08:06.416Z,30.72
2022-08-17T14:10:36.470Z,30.37
2022-08-17T14:13:05.686Z,31.13
2022-08-17T14:15:55.635Z,29.91
2022-08-17T14:18:55.578Z,30.17
2022-08-17T14:21:09.752Z,29.97
2022-08-17T14:23:37.868Z,30.81
2022-08-17T14:26:05.571Z,29.90
2022-08-17T14:28:32.654Z,29.56
2022-08-17T14:31:01.247Z,29.78
2022-08-17T14:33:29.079Z,29.37
2022-08-17T14:35:57.669Z,29.19
2022-08-17T14:38:24.897Z,29.48
2022-08-17T14:40:52.608Z,29.66
2022-08-17T14:43:20.954Z,29.65
2022-08-17T14:45:47.887Z,28.98
2022-08-17T14:48:14.893Z,28.77
2022-08-17T14:50:44.268Z,29.53
2022-08-17T14:53:16.145Z,29.61
2022-08-17T14:55:45.816Z,29.07
2022-08-17T14:58:14.086Z,29.39
2022-08-17T15:00:43.023Z,29.69
2022-08-17T15:03:11.493Z,29.97
2022-08-17T15:05:39.356Z,30.44
2022-08-17T15:08:06.840Z,29.84
2022-08-17T15:10:34.436Z,29.85
2022-08-17T15:13:01.973Z,30.04
2022-08-17T15:15:30.059Z,30.04
2022-08-17T15:17:58.256Z,29.96
2022-08-17T15:20:29.870Z,29.88
2022-08-17T15:22:58.966Z,29.82
2022-08-17T15:25:31.910Z,29.35
2022-08-17T15:28:01.097Z,30.32
2022-08-17T15:30:29.056Z,30.07
2022-08-17T15:33:01.983Z,30.36
2022-08-17T15:35:33.286Z,29.76
2022-08-17T15:38:11.672Z,29.29
2022-08-17T15:40:44.868Z,29.68
2022-08-17T15:43:32.493Z,29.72
2022-08-17T15:46:12.290Z,29.23
2022-08-17T15:48:42.756Z,28.87
2022-08-17T15:51:24.119Z,29.50
2022-08-17T15:54:04.589Z,29.39
2022-08-17T15:56:47.019Z,29.59
2022-08-17T15:59:13.935Z,29.38
2022-08-17T16:03:06.716Z,29.01
2022-08-17T16:04:30.685Z,29.04
2022-08-17T16:07:00.003Z,29.04
2022-08-17T16:09:27.572Z,28.90
2022-08-17T16:11:56.109Z,29.19
2022-08-17T16:14:32.441Z,28.56
2022-08-17T16:17:02.881Z,28.71
2022-08-17T16:19:29.706Z,28.00
2022-08-17T16:21:56.759Z,27.89
2022-08-17T16:24:23.810Z,27.92
2022-08-17T16:26:50.788Z,27.40
2022-08-17T16:29:17.909Z,27.79
2022-08-17T16:31:44.910Z,28.13
2022-08-17T16:34:16.400Z,28.60
2022-08-17T16:36:55.779Z,28.66
2022-08-17T16:39:27.174Z,28.51
2022-08-17T16:41:55.974Z,29.27
2022-08-17T16:44:23.020Z,28.48
2022-08-17T16:46:50.451Z,28.64
2022-08-17T16:49:35.728Z,28.78
2022-08-17T16:52:10.691Z,28.99
2022-08-17T16:54:43.760Z,29.13
2022-08-17T16:57:17.565Z,29.18
2022-08-17T16:59:48.093Z,29.28
2022-08-17T17:02:24.417Z,29.28
2022-08-17T17:05:42.945Z,29.50
2022-08-17T17:08:33.908Z,29.62
2022-08-17T17:11:13.823Z,29.51
2022-08-17T17:13:56.862Z,29.19
2022-08-17T17:16:35.922Z,29.92
2022-08-17T17:19:34.174Z,29.88
2022-08-17T17:22:45.223Z,30.03
2022-08-17T17:25:45.238Z,29.99
2022-08-17T17:28:39.172Z,30.25
2022-08-17T17:31:15.653Z,30.19
2022-08-17T17:33:52.618Z,30.51
2022-08-17T17:36:39.740Z,30.50
2022-08-17T17:39:44.144Z,30.38
2022-08-17T17:42:19.982Z,30.30
2022-08-17T17:44:59.772Z,31.05
2022-08-17T17:47:29.361Z,31.55
2022-08-17T17:49:56.290Z,31.25
2022-08-17T17:52:32.360Z,31.71
2022-08-17T17:55:17.290Z,32.11
2022-08-17T17:58:20.755Z,31.89
2022-08-17T18:01:00.534Z,31.84
2022-08-17T18:04:17.028Z,32.04
2022-08-17T18:07:28.696Z,32.44
2022-08-17T18:10:30.090Z,32.64
2022-08-17T18:13:17.762Z,32.46
2022-08-17T18:15:52.226Z,32.78
2022-08-17T18:18:37.791Z,32.54
2022-08-17T18:21:38.240Z,32.76
2022-08-17T18:24:10.524Z,33.17
2022-08-17T18:27:02.301Z,33.58
2022-08-17T18:29:45.642Z,33.63
2022-08-17T18:32:25.740Z,33.78
2022-08-17T18:35:09.194Z,33.94
2022-08-17T18:38:20.373Z,33.84
2022-08-17T18:41:03.954Z,34.15
2022-08-17T18:43:52.933Z,34.04
2022-08-17T18:46:30.061Z,34.20
2022-08-17T18:49:07.498Z,34.30
2022-08-17T18:51:43.295Z,34.28
2022-08-17T18:54:24.034Z,34.81
2022-08-17T18:56:58.974Z,34.82
2022-08-17T18:59:35.181Z,34.95
2022-08-17T19:02:09.976Z,34.87
2022-08-17T19:05:08.590Z,34.83
2022-08-17T19:07:45.995Z,34.90
2022-08-17T19:10:46.438Z,35.39
2022-08-17T19:13:25.630Z,35.31
2022-08-17T19:16:18.825Z,35.64
2022-08-17T19:18:56.039Z,35.93
2022-08-17T19:21:34.771Z,36.21
2022-08-17T19:24:24.817Z,35.96
2022-08-17T19:26:57.568Z,35.83
2022-08-17T19:29:54.846Z,35.73
2022-08-17T19:32:28.988Z,36.08
2022-08-17T19:34:57.389Z,35.87
2022-08-17T19:38:14.585Z,35.70
2022-08-17T19:41:07.394Z,35.64
2022-08-17T19:43:55.229Z,35.76
2022-08-17T19:46:59.512Z,35.64
2022-08-17T19:49:33.374Z,35.70
2022-08-17T19:52:46.945Z,35.52
2022-08-17T19:55:43.909Z,35.80
2022-08-17T19:58:39.730Z,35.82
2022-08-17T20:01:16.796Z,35.92
2022-08-17T20:04:13.708Z,35.94
2022-08-17T20:06:49.308Z,36.13
2022-08-17T20:09:41.185Z,36.24
2022-08-17T20:12:14.306Z,36.18
2022-08-17T20:14:55.817Z,36.13
2022-08-17T20:17:31.247Z,36.48
2022-08-17T20:20:19.834Z,36.37
2022-08-17T20:23:15.563Z,36.76
2022-08-17T20:26:19.144Z,36.97
2022-08-17T20:29:13.904Z,37.05
2022-08-17T20:31:56.220Z,36.65
2022-08-17T20:34:33.412Z,36.85
2022-08-17T20:37:28.160Z,36.68
2022-08-17T20:39:55.020Z,36.26
2022-08-17T20:42:22.084Z,36.37
2022-08-17T20:44:55.618Z,36.65
2022-08-17T20:47:55.367Z,36.63
2022-08-17T20:50:43.706Z,36.62
2022-08-17T20:53:32.255Z,36.69
2022-08-17T20:55:59.480Z,36.49
2022-08-17T20:58:29.961Z,36.13
2022-08-17T21:00:58.981Z,36.38
2022-08-17T21:03:50.481Z,36.53
2022-08-17T21:06:20.170Z,36.16
2022-08-17T21:09:18.758Z,36.58
2022-08-17T21:12:04.568Z,36.51
2022-08-17T21:14:54.218Z,36.47
2022-08-17T21:17:42.588Z,36.97
2022-08-17T21:20:34.710Z,36.88
2022-08-17T21:23:32.268Z,37.04
2022-08-17T21:26:17.698Z,37.12
2022-08-17T21:29:29.670Z,37.20
2022-08-17T21:32:01.768Z,37.46
2022-08-17T21:34:34.737Z,37.77
2022-08-17T21:37:20.227Z,38.37
2022-08-17T21:39:55.821Z,38.23
2022-08-17T21:42:32.138Z,38.24
2022-08-17T21:45:25.344Z,38.78
2022-08-17T21:48:11.165Z,38.57
2022-08-17T21:50:41.768Z,38.99
2022-08-17T21:53:22.207Z,39.39
2022-08-17T21:55:50.431Z,39.16
2022-08-17T21:58:40.359Z,39.48
2022-08-17T22:01:21.675Z,39.46
2022-08-17T22:04:02.220Z,39.43
2022-08-17T22:06:56.772Z,39.70
2022-08-17T22:09:47.429Z,40.21
2022-08-17T22:12:26.698Z,39.99
2022-08-17T22:15:02.389Z,40.25
2022-08-17T22:17:36.530Z,40.46
2022-08-17T22:20:20.593Z,40.47
2022-08-17T22:23:08.944Z,40.13
2022-08-17T22:25:41.231Z,40.70
2022-08-17T22:28:12.664Z,40.48
2022-08-17T22:30:59.156Z,40.58
2022-08-17T22:34:00.083Z,40.92
2022-08-17T22:36:38.984Z,41.73
2022-08-17T22:39:08.442Z,41.29
2022-08-17T22:41:48.145Z,41.04
2022-08-17T22:44:31.786Z,41.62
2022-08-17T22:47:11.525Z,41.71
2022-08-17T22:49:58.934Z,42.35
2022-08-17T22:53:16.051Z,41.81
2022-08-17T22:56:14.588Z,42.60
2022-08-17T22:59:14.435Z,42.87
2022-08-17T23:01:45.439Z,43.08
2022-08-17T23:04:36.995Z,43.18
2022-08-17T23:07:04.010Z,43.73
2022-08-17T23:09:30.990Z,44.07
2022-08-17T23:11:58.954Z,44.12
2022-08-17T23:14:31.496Z,44.30
2022-08-17T23:16:59.452Z,44.23
2022-08-17T23:19:28.553Z,44.63
2022-08-17T23:21:57.225Z,44.63
2022-08-17T23:24:35.679Z,44.56
2022-08-17T23:27:04.687Z,44.75
2022-08-17T23:29:31.773Z,44.64
2022-08-17T23:32:01.372Z,44.50
2022-08-17T23:34:28.859Z,44.16
2022-08-17T23:36:56.195Z,44.29
2022-08-17T23:39:28.122Z,44.33
2022-08-17T23:41:58.282Z,43.85
2022-08-17T23:44:27.171Z,43.81
2022-08-17T23:46:54.999Z,44.67
2022-08-17T23:49:23.440Z,44.61
2022-08-17T23:51:55.155Z,44.58
2022-08-17T23:54:43.770Z,44.29
2022-08-17T23:57:17.443Z,44.69
2022-08-17T23:59:45.425Z,45.08
